Time;durP1;ratioP1;P1;durP2;ratioP2;P2;SDS_P1;SDS_P2;PMS_P1;PMS_P2;Temp;Humidity;BMP_temperature;BMP_pressure;BME280_temperature;BME280_humidity;BME280_pressure;Samples;Min_cycle;Max_cycle;Signal;HPM_P1;HPM_P2
2021/04/26 00:00:21;;;;;;;31.13;8.10;;;;;;;1.54;60.13;100885.06;115257;1199;23372;-52
2021/04/26 00:03:10;;;;;;;28.57;7.73;;;;;;;1.51;60.46;100883.13;115146;1199;23170;-51
2021/04/26 00:05:39;;;;;;;24.40;6.23;;;;;;;1.48;60.19;100868.20;115258;1199;23132;-56
2021/04/26 00:08:08;;;;;;;24.60;7.03;;;;;;;1.46;60.45;100881.58;115098;1199;23522;-52
2021/04/26 00:10:37;;;;;;;25.13;6.83;;;;;;;1.42;60.58;100874.53;115247;1196;26054;-51
2021/04/26 00:13:06;;;;;;;28.43;7.93;;;;;;;1.37;60.47;100875.73;115178;1199;23180;-53
2021/04/26 00:15:34;;;;;;;23.97;6.63;;;;;;;1.32;60.47;100873.41;115171;1199;23190;-51
2021/04/26 00:18:03;;;;;;;21.43;6.93;;;;;;;1.30;60.83;100874.99;115210;1199;23108;-52
2021/04/26 00:20:32;;;;;;;26.40;7.25;;;;;;;1.27;61.01;100873.03;115295;1196;28518;-52
2021/04/26 00:23:02;;;;;;;23.10;6.97;;;;;;;1.21;60.58;100878.17;115412;1199;23113;-52
2021/04/26 00:25:32;;;;;;;24.77;6.73;;;;;;;1.19;60.99;100877.00;115304;1199;23089;-54
2021/04/26 00:28:01;;;;;;;25.75;7.35;;;;;;;1.16;61.02;100864.83;115361;1196;23443;-54
2021/04/26 00:30:31;;;;;;;27.73;6.90;;;;;;;1.15;60.94;100874.27;115433;1199;27335;-51
2021/04/26 00:33:00;;;;;;;23.45;6.18;;;;;;;1.15;61.04;100865.23;115402;1199;23234;-51
2021/04/26 00:35:29;;;;;;;26.90;6.33;;;;;;;1.14;61.07;100871.94;115274;1199;23311;-51
2021/04/26 00:37:58;;;;;;;29.40;7.50;;;;;;;1.14;60.95;100874.69;115298;1199;23085;-54
2021/04/26 00:40:27;;;;;;;24.93;7.43;;;;;;;1.11;61.07;100861.72;115230;1199;23263;-51
2021/04/26 00:42:56;;;;;;;27.45;6.25;;;;;;;1.09;61.12;100864.88;115264;1198;23236;-51
2021/04/26 00:45:26;;;;;;;22.35;5.70;;;;;;;1.08;60.96;100860.55;115159;1199;23090;-52
2021/04/26 00:47:55;;;;;;;23.38;5.58;;;;;;;1.08;60.95;100860.55;115270;1198;28201;-54
2021/04/26 00:50:26;;;;;;;24.25;6.30;;;;;;;1.07;60.86;100852.70;115311;1196;23069;-55
2021/04/26 00:52:55;;;;;;;23.10;6.43;;;;;;;1.06;61.02;100856.63;115221;1199;27354;-51
2021/04/26 00:55:26;;;;;;;23.47;5.87;;;;;;;1.05;61.15;100858.61;115205;1199;28316;-53
2021/04/26 00:57:55;;;;;;;20.73;5.00;;;;;;;1.04;61.12;100859.78;115207;1199;23158;-51
2021/04/26 01:00:25;;;;;;;21.13;5.63;;;;;;;1.01;61.03;100852.34;115373;1199;27367;-56
2021/04/26 01:02:54;;;;;;;22.00;5.80;;;;;;;0.99;60.96;100854.72;115251;1197;23151;-51
2021/04/26 01:05:27;;;;;;;32.90;7.27;;;;;;;0.96;61.06;100851.95;115220;1199;26175;-54
2021/04/26 01:07:56;;;;;;;37.47;8.20;;;;;;;0.93;61.13;100848.06;115224;1199;23079;-55
2021/04/26 01:10:29;;;;;;;27.60;6.97;;;;;;;0.90;61.29;100848.84;115317;1196;26175;-54
2021/04/26 01:13:17;;;;;;;31.27;7.80;;;;;;;0.86;61.26;100853.58;115190;1199;23224;-52
2021/04/26 01:15:56;;;;;;;33.35;8.55;;;;;;;0.85;61.37;100840.24;115193;1198;27303;-53
2021/04/26 01:18:30;;;;;;;28.17;7.00;;;;;;;0.83;61.54;100848.86;115243;1199;23151;-51
2021/04/26 01:21:27;;;;;;;25.70;5.60;;;;;;;0.81;61.61;100848.48;115340;1199;27191;-52
2021/04/26 01:24:21;;;;;;;27.60;6.57;;;;;;;0.80;61.57;100844.97;115301;1199;26127;-53
2021/04/26 01:27:05;;;;;;;25.80;6.05;;;;;;;0.76;61.63;100835.95;115153;1199;23235;-54
2021/04/26 01:30:06;;;;;;;26.07;6.83;;;;;;;0.75;61.77;100839.88;115318;1199;23088;-54
2021/04/26 01:32:41;;;;;;;23.87;5.87;;;;;;;0.73;61.56;100836.73;115013;1202;27298;-52
2021/04/26 01:35:13;;;;;;;28.83;5.77;;;;;;;0.71;61.61;100833.61;115159;1199;26341;-52
2021/04/26 01:37:45;;;;;;;28.85;6.45;;;;;;;0.69;61.63;100837.92;115171;1201;24150;-52
2021/04/26 01:40:16;;;;;;;23.70;5.50;;;;;;;0.67;61.64;100835.59;114725;1200;23092;-59
2021/04/26 01:42:51;;;;;;;23.35;4.90;;;;;;;0.64;61.56;100828.13;115114;1202;27293;-55
2021/04/26 01:45:21;;;;;;;27.20;5.00;;;;;;;0.62;61.71;100827.73;115087;1202;23236;-52
2021/04/26 01:47:54;;;;;;;21.77;5.00;;;;;;;0.59;61.46;100830.50;115203;1202;26954;-53
2021/04/26 01:50:24;;;;;;;23.20;5.20;;;;;;;0.56;61.50;100821.09;115179;1200;23202;-51
2021/04/26 01:52:54;;;;;;;22.65;4.80;;;;;;;0.54;61.63;100825.41;115130;1202;25974;-52
2021/04/26 01:55:24;;;;;;;22.53;4.43;;;;;;;0.51;61.79;100820.72;115119;1202;26176;-53
2021/04/26 01:57:55;;;;;;;19.20;4.05;;;;;;;0.49;61.65;100818.38;115165;1202;27438;-56
2021/04/26 02:00:26;;;;;;;17.50;3.77;;;;;;;0.46;61.70;100816.41;115152;1202;23236;-54
2021/04/26 02:02:57;;;;;;;23.45;4.25;;;;;;;0.44;61.71;100815.23;115065;1202;23242;-52
2021/04/26 02:05:28;;;;;;;20.75;3.50;;;;;;;0.39;61.71;100808.20;114668;1202;23106;-51
2021/04/26 02:07:57;;;;;;;18.35;4.00;;;;;;;0.36;62.00;100817.22;115210;1203;23112;-54
2021/04/26 02:10:28;;;;;;;17.03;3.50;;;;;;;0.32;61.72;100799.97;115229;1199;27403;-53
2021/04/26 02:12:58;;;;;;;14.53;2.43;;;;;;;0.31;61.67;100800.38;115236;1199;23157;-55
2021/04/26 02:15:33;;;;;;;16.28;2.80;;;;;;;0.29;61.95;100808.23;115499;1199;23570;-51
2021/04/26 02:18:02;;;;;;;21.03;2.40;;;;;;;0.25;61.61;100808.22;115432;1198;23157;-52
2021/04/26 02:20:31;;;;;;;14.83;2.57;;;;;;;0.23;61.55;100799.59;115267;1199;23090;-54
2021/04/26 02:23:00;;;;;;;10.57;1.90;;;;;;;0.21;61.57;100801.95;115209;1199;23091;-55
2021/04/26 02:25:28;;;;;;;14.25;2.30;;;;;;;0.18;61.43;100797.27;115626;1199;24755;-53
2021/04/26 02:27:57;;;;;;;11.73;2.23;;;;;;;0.15;61.39;100802.74;115193;1199;23231;-53
2021/04/26 02:30:29;;;;;;;12.20;2.20;;;;;;;0.12;61.43;100798.05;115198;1196;24753;-52
2021/04/26 02:33:04;;;;;;;10.50;2.10;;;;;;;0.09;61.67;100801.58;115276;1199;23115;-51
2021/04/26 02:35:37;;;;;;;13.97;2.30;;;;;;;0.04;61.68;100802.78;115122;1199;23089;-51
2021/04/26 02:38:08;;;;;;;12.50;2.37;;;;;;;0.01;61.69;100803.56;115290;1196;23211;-54
2021/04/26 02:40:43;;;;;;;13.45;2.05;;;;;;;-0.02;61.67;100809.83;115183;1198;23107;-52
2021/04/26 02:43:13;;;;;;;9.70;2.00;;;;;;;-0.05;61.78;100805.13;115157;1199;23113;-52
2021/04/26 02:45:48;;;;;;;11.57;1.93;;;;;;;-0.09;61.63;100805.14;115310;1199;23082;-51
2021/04/26 02:48:18;;;;;;;14.80;2.30;;;;;;;-0.11;61.86;100806.71;115401;1197;23230;-54
2021/04/26 02:50:47;;;;;;;10.40;2.33;;;;;;;-0.15;61.86;100801.23;115329;1199;23097;-52
2021/04/26 02:53:17;;;;;;;8.13;1.53;;;;;;;-0.17;62.02;100803.59;115225;1196;23090;-53
2021/04/26 02:55:47;;;;;;;17.60;3.23;;;;;;;-0.19;61.93;100800.42;115239;1199;23230;-52
2021/04/26 02:58:15;;;;;;;8.47;2.10;;;;;;;-0.21;61.76;100805.52;115218;1199;23153;-52
2021/04/26 03:00:45;;;;;;;14.07;2.20;;;;;;;-0.23;61.99;100802.38;115259;1199;26351;-51
2021/04/26 03:03:17;;;;;;;11.60;2.10;;;;;;;-0.26;61.97;100800.44;115339;1199;23112;-58
2021/04/26 03:05:49;;;;;;;11.90;1.80;;;;;;;-0.28;62.26;100797.31;115459;1199;23112;-51
2021/04/26 03:08:18;;;;;;;14.47;2.00;;;;;;;-0.31;62.23;100800.06;115495;1199;23116;-52
2021/04/26 03:10:47;;;;;;;12.57;1.77;;;;;;;-0.34;62.33;100796.14;115633;1195;28208;-52
2021/04/26 03:13:17;;;;;;;12.30;1.60;;;;;;;-0.34;62.13;100801.63;115059;1199;23295;-52
2021/04/26 03:15:46;;;;;;;15.40;1.63;;;;;;;-0.34;62.21;100803.58;115174;1196;26273;-51
2021/04/26 03:18:16;;;;;;;11.30;1.80;;;;;;;-0.35;62.14;100799.28;115240;1196;23143;-52
2021/04/26 03:20:45;;;;;;;13.90;1.73;;;;;;;-0.37;62.21;100796.11;115296;1199;23109;-52
2021/04/26 03:23:19;;;;;;;10.55;1.90;;;;;;;-0.41;62.20;100795.33;115307;1199;23122;-56
2021/04/26 03:25:48;;;;;;;12.40;1.63;;;;;;;-0.41;62.31;100803.56;115330;1199;23116;-51
2021/04/26 03:28:18;;;;;;;9.93;1.47;;;;;;;-0.42;62.33;100802.80;115274;1199;23117;-53
2021/04/26 03:30:47;;;;;;;12.50;1.95;;;;;;;-0.45;62.28;100802.78;115295;1196;23156;-55
2021/04/26 03:33:17;;;;;;;12.30;1.90;;;;;;;-0.47;62.39;100802.38;115257;1195;23124;-56
2021/04/26 03:35:46;;;;;;;11.68;1.60;;;;;;;-0.51;62.60;100804.34;115603;1198;23122;-56
2021/04/26 03:38:17;;;;;;;9.35;1.45;;;;;;;-0.54;62.51;100797.70;115454;1199;25954;-54
2021/04/26 03:40:45;;;;;;;13.67;2.17;;;;;;;-0.57;62.47;100803.95;115442;1199;26176;-54
2021/04/26 03:43:17;;;;;;;11.60;1.80;;;;;;;-0.58;62.70;100798.86;115315;1199;23224;-61
2021/04/26 03:45:46;;;;;;;9.30;1.57;;;;;;;-0.59;62.72;100803.56;115397;1199;23090;-55
2021/04/26 03:48:15;;;;;;;14.10;1.70;;;;;;;-0.59;62.78;100800.81;115392;1199;23161;-52
2021/04/26 03:50:44;;;;;;;12.60;1.50;;;;;;;-0.60;62.84;100803.95;115190;1199;23230;-52
2021/04/26 03:53:12;;;;;;;14.95;1.80;;;;;;;-0.61;62.85;100805.12;115278;1199;27713;-55
2021/04/26 03:55:41;;;;;;;14.20;1.77;;;;;;;-0.63;62.92;100810.20;115246;1199;25995;-52
2021/04/26 03:58:09;;;;;;;16.10;1.93;;;;;;;-0.63;62.98;100812.95;115228;1199;23079;-53
2021/04/26 04:00:38;;;;;;;12.57;1.67;;;;;;;-0.64;63.07;100814.14;115269;1199;23079;-51
2021/04/26 04:03:09;;;;;;;14.83;2.10;;;;;;;-0.66;63.07;100811.00;115251;1199;23075;-53
2021/04/26 04:05:38;;;;;;;13.50;2.00;;;;;;;-0.66;63.17;100819.23;115401;1199;23397;-52
2021/04/26 04:08:07;;;;;;;18.13;2.03;;;;;;;-0.66;63.20;100816.48;115275;1199;25034;-54
2021/04/26 04:10:36;;;;;;;20.55;2.80;;;;;;;-0.66;63.34;100830.95;115166;1196;28637;-53
2021/04/26 04:13:04;;;;;;;12.77;2.10;;;;;;;-0.65;63.47;100827.05;115382;1199;23090;-55
2021/04/26 04:15:33;;;;;;;17.03;2.40;;;;;;;-0.64;63.66;100830.59;115264;1199;23089;-57
2021/04/26 04:18:01;;;;;;;16.67;2.63;;;;;;;-0.61;63.67;100838.02;115291;1199;23093;-55
2021/04/26 04:20:30;;;;;;;15.63;2.10;;;;;;;-0.58;64.05;100840.00;115266;1196;26719;-52
2021/04/26 04:22:59;;;;;;;11.65;2.10;;;;;;;-0.54;63.79;100836.09;115229;1199;23110;-54
2021/04/26 04:25:27;;;;;;;18.63;2.20;;;;;;;-0.49;63.95;100835.69;115222;1196;23256;-53
2021/04/26 04:27:56;;;;;;;15.57;2.53;;;;;;;-0.43;64.01;100838.83;115271;1196;25927;-57
2021/04/26 04:30:25;;;;;;;13.83;2.67;;;;;;;-0.38;63.94;100844.73;115309;1196;27259;-53
2021/04/26 04:32:53;;;;;;;18.73;2.83;;;;;;;-0.34;64.15;100844.72;115243;1196;23203;-51
2021/04/26 04:35:22;;;;;;;15.13;3.03;;;;;;;-0.30;64.30;100840.81;115200;1199;23109;-54
2021/04/26 04:37:50;;;;;;;19.73;3.50;;;;;;;-0.25;64.26;100853.36;115147;1199;23120;-52
2021/04/26 04:40:19;;;;;;;13.90;2.90;;;;;;;-0.18;64.25;100847.86;115200;1199;23090;-58
2021/04/26 04:42:48;;;;;;;17.25;3.25;;;;;;;-0.13;64.47;100851.02;115269;1199;25054;-60
2021/04/26 04:45:19;;;;;;;18.10;3.00;;;;;;;-0.06;64.15;100851.00;115252;1199;23243;-58
2021/04/26 04:47:48;;;;;;;18.50;3.50;;;;;;;0.02;64.48;100848.27;115439;1199;23090;-60
2021/04/26 04:50:16;;;;;;;16.80;3.15;;;;;;;0.10;64.60;100852.58;115459;1196;28422;-61
2021/04/26 04:52:46;;;;;;;21.00;3.60;;;;;;;0.18;64.73;100856.88;115290;1199;23286;-61
2021/04/26 04:55:15;;;;;;;14.10;3.27;;;;;;;0.26;64.83;100853.73;115198;1196;23369;-62
2021/04/26 04:57:43;;;;;;;21.60;3.80;;;;;;;0.34;64.78;100857.24;115234;1196;23231;-61
2021/04/26 05:00:16;;;;;;;20.50;3.97;;;;;;;0.40;64.82;100845.47;114944;1199;23092;-60
2021/04/26 05:02:45;;;;;;;16.20;4.10;;;;;;;0.48;64.95;100855.25;115219;1196;23083;-59
2021/04/26 05:05:17;;;;;;;19.57;3.43;;;;;;;0.56;64.77;100848.56;115360;1199;23185;-61
2021/04/26 05:07:46;;;;;;;15.90;4.57;;;;;;;0.64;64.95;100847.36;115296;1199;24758;-59
2021/04/26 05:10:15;;;;;;;24.07;5.63;;;;;;;0.73;64.83;100849.69;116303;1196;23172;-60
2021/04/26 05:12:43;;;;;;;20.73;5.27;;;;;;;0.80;64.55;100847.72;115345;1196;26130;-61
2021/04/26 05:15:15;;;;;;;14.87;2.93;;;;;;;0.88;64.25;100856.71;115264;1199;23095;-62
2021/04/26 05:17:44;;;;;;;17.25;2.65;;;;;;;0.97;64.33;100854.33;115366;1199;26147;-62
2021/04/26 05:20:14;;;;;;;16.50;2.50;;;;;;;1.05;64.22;100857.82;115325;1199;23109;-62
2021/04/26 05:22:44;;;;;;;16.18;3.08;;;;;;;1.13;64.50;100853.85;115345;1196;27169;-61
2021/04/26 05:25:13;;;;;;;15.95;2.50;;;;;;;1.22;64.30;100865.21;115375;1200;25775;-60
2021/04/26 05:27:42;;;;;;;14.08;2.45;;;;;;;1.29;64.21;100857.70;115380;1199;23087;-60
2021/04/26 05:30:13;;;;;;;21.30;3.20;;;;;;;1.38;64.17;100857.27;115233;1199;23230;-60
2021/04/26 05:32:42;;;;;;;15.73;2.78;;;;;;;1.48;64.30;100853.66;115401;1196;23137;-59
2021/04/26 05:35:12;;;;;;;10.47;1.83;;;;;;;1.56;63.89;100852.42;115371;1199;23140;-61
2021/04/26 05:37:41;;;;;;;13.20;2.50;;;;;;;1.62;63.53;100850.81;115335;1199;23077;-60
2021/04/26 05:40:12;;;;;;;12.20;1.60;;;;;;;1.64;63.82;100853.94;115288;1196;23110;-61
2021/04/26 05:42:41;;;;;;;10.10;1.33;;;;;;;1.65;63.58;100859.03;115448;1199;23542;-60
2021/04/26 05:45:12;;;;;;;8.53;1.30;;;;;;;1.68;63.69;100853.94;115200;1199;23295;-60
2021/04/26 05:47:40;;;;;;;7.83;1.10;;;;;;;1.69;63.67;100850.77;115260;1196;23298;-59
2021/04/26 05:50:10;;;;;;;6.60;1.13;;;;;;;1.70;63.32;100857.06;115250;1196;26131;-60
2021/04/26 05:52:39;;;;;;;8.03;1.20;;;;;;;1.72;63.08;100860.20;115316;1199;23240;-60
2021/04/26 05:55:09;;;;;;;8.20;1.45;;;;;;;1.75;63.41;100857.41;115166;1199;23083;-61
2021/04/26 05:57:38;;;;;;;8.63;1.30;;;;;;;1.81;63.16;100852.25;115298;1199;23080;-61
2021/04/26 06:00:09;;;;;;;11.40;1.40;;;;;;;1.89;63.15;100851.00;115174;1199;26772;-59
2021/04/26 06:02:38;;;;;;;10.73;1.90;;;;;;;1.99;62.97;100861.94;115282;1197;24565;-58
2021/04/26 06:05:09;;;;;;;7.45;1.30;;;;;;;2.11;63.03;100863.42;115266;1199;23159;-58
2021/04/26 06:07:36;;;;;;;;;;;;;;;2.19;62.85;100854.67;115382;1202;23237;-60
2021/04/26 06:10:09;;;;;;;8.37;1.40;;;;;;;2.31;62.44;100859.70;115258;1199;25384;-58
2021/04/26 06:12:38;;;;;;;10.70;1.37;;;;;;;2.40;62.57;100862.74;115282;1196;23090;-59
2021/04/26 06:15:08;;;;;;;6.60;1.20;;;;;;;2.48;61.25;100848.91;115263;1196;26045;-61
2021/04/26 06:17:37;;;;;;;13.63;1.93;;;;;;;2.57;62.19;100851.94;115123;1199;23096;-62
2021/04/26 06:20:11;;;;;;;10.35;1.35;;;;;;;2.65;61.89;100853.45;115013;1195;26961;-62
2021/04/26 06:22:40;;;;;;;7.17;1.00;;;;;;;2.69;61.34;100845.92;115299;1197;23090;-61
2021/04/26 06:25:11;;;;;;;9.77;1.37;;;;;;;2.72;61.29;100853.36;115468;1196;23169;-61
2021/04/26 06:27:40;;;;;;;9.17;1.00;;;;;;;2.74;60.98;100851.77;115322;1199;23079;-61
2021/04/26 06:30:11;;;;;;;8.17;1.23;;;;;;;2.78;60.89;100848.95;115207;1199;23113;-59
2021/04/26 06:32:40;;;;;;;13.70;1.13;;;;;;;2.83;61.60;100840.24;115422;1199;27183;-61
2021/04/26 06:35:10;;;;;;;6.20;0.90;;;;;;;2.91;61.10;100847.23;115490;1196;23263;-62
2021/04/26 06:37:39;;;;;;;7.10;1.10;;;;;;;2.97;61.00;100842.83;115343;1200;24549;-62
2021/04/26 06:40:10;;;;;;;8.70;1.20;;;;;;;3.04;61.69;100842.75;115330;1196;23093;-63
2021/04/26 06:42:39;;;;;;;7.35;1.10;;;;;;;3.14;61.29;100834.34;115448;1195;23153;-62
2021/04/26 06:45:10;;;;;;;7.70;1.00;;;;;;;3.23;61.18;100831.83;115321;1199;24945;-62
2021/04/26 06:47:40;;;;;;;6.55;1.00;;;;;;;3.28;60.38;100827.83;115438;1196;26000;-62
2021/04/26 06:50:10;;;;;;;5.40;1.00;;;;;;;3.32;60.86;100828.56;115205;1196;23093;-61
2021/04/26 06:52:39;;;;;;;7.70;1.17;;;;;;;3.40;60.58;100824.50;115295;1200;23076;-60
2021/04/26 06:55:10;;;;;;;12.27;1.50;;;;;;;3.48;60.81;100827.94;115180;1199;26125;-61
2021/04/26 06:57:39;;;;;;;7.97;0.93;;;;;;;3.57;60.82;100825.44;115417;1199;26212;-60
2021/04/26 07:00:11;;;;;;;8.37;1.10;;;;;;;3.67;60.89;100822.52;115196;1199;23087;-61
2021/04/26 07:02:40;;;;;;;6.83;1.20;;;;;;;3.77;60.49;100824.33;115497;1196;27259;-60
2021/04/26 07:05:11;;;;;;;5.93;1.13;;;;;;;3.83;60.17;100824.63;115318;1196;27198;-61
2021/04/26 07:07:40;;;;;;;6.93;0.97;;;;;;;3.89;60.20;100814.69;115434;1199;23240;-61
2021/04/26 07:10:10;;;;;;;5.77;1.33;;;;;;;3.97;59.54;100810.61;115097;1196;26238;-62
2021/04/26 07:12:40;;;;;;;7.75;1.10;;;;;;;4.02;60.22;100805.38;115414;1199;27476;-61
2021/04/26 07:15:12;;;;;;;9.83;1.23;;;;;;;4.13;59.96;100804.40;115507;1199;23096;-61
2021/04/26 07:17:40;;;;;;;9.43;1.10;;;;;;;4.23;59.90;100809.74;115396;1199;26252;-60
2021/04/26 07:20:12;;;;;;;4.60;0.40;;;;;;;4.31;59.11;100805.64;115316;1199;24878;-61
2021/04/26 07:22:42;;;;;;;4.77;0.67;;;;;;;4.40;58.66;100810.63;115360;1196;27169;-61
2021/04/26 07:25:13;;;;;;;6.68;0.98;;;;;;;4.45;58.89;100808.14;115151;1199;23076;-61
2021/04/26 07:27:41;;;;;;;;;;;;;;;4.52;57.94;100804.47;115281;1201;23116;-61
2021/04/26 07:30:12;;;;;;;3.33;0.43;;;;;;;4.59;57.73;100809.88;115115;1197;21665;-59
2021/04/26 07:32:41;;;;;;;2.35;0.40;;;;;;;4.64;57.25;100803.83;115548;1196;27303;-61
2021/04/26 07:35:13;;;;;;;2.70;0.50;;;;;;;4.66;56.72;100802.20;115376;1199;26095;-61
2021/04/26 07:37:43;;;;;;;2.10;0.20;;;;;;;4.71;55.12;100806.47;115248;1199;23086;-61
2021/04/26 07:40:14;;;;;;;1.83;0.30;;;;;;;4.73;56.01;100796.55;115259;1199;23117;-62
2021/04/26 07:42:44;;;;;;;2.60;0.40;;;;;;;4.82;55.87;100804.27;115367;1199;23094;-63
2021/04/26 07:45:19;;;;;;;4.80;0.43;;;;;;;4.90;55.36;100787.08;115302;1199;24683;-63
2021/04/26 07:47:49;;;;;;;2.60;0.40;;;;;;;4.93;54.46;100796.52;115300;1199;23107;-60
2021/04/26 07:50:19;;;;;;;1.23;0.30;;;;;;;4.96;52.93;100792.13;115462;1196;24716;-61
2021/04/26 07:52:48;;;;;;;3.43;0.37;;;;;;;5.03;53.33;100786.45;115389;1199;23146;-60
2021/04/26 07:55:17;;;;;;;1.93;0.40;;;;;;;5.10;54.35;100786.28;115115;1199;25968;-58
2021/04/26 07:57:45;;;;;;;5.50;0.60;;;;;;;5.16;53.33;100793.65;115182;1199;23198;-59
2021/04/26 08:00:17;;;;;;;1.70;0.70;;;;;;;5.21;53.13;100790.39;115172;1196;27211;-60
2021/04/26 08:02:46;;;;;;;3.15;0.50;;;;;;;5.29;52.64;100782.70;115309;1196;23089;-58
2021/04/26 08:05:15;;;;;;;4.27;0.50;;;;;;;5.34;53.07;100791.26;115196;1196;23237;-58
2021/04/26 08:07:44;;;;;;;6.70;0.90;;;;;;;5.41;53.07;100790.32;115155;1196;23093;-59
2021/04/26 08:10:14;;;;;;;4.20;0.63;;;;;;;5.48;51.48;100795.70;115166;1199;24854;-59
2021/04/26 08:12:43;;;;;;;4.10;0.53;;;;;;;5.55;51.38;100790.77;115434;1198;26824;-59
2021/04/26 08:15:13;;;;;;;5.70;0.60;;;;;;;5.60;51.10;100795.02;115376;1196;26226;-60
2021/04/26 08:17:42;;;;;;;10.25;0.50;;;;;;;5.59;50.28;100794.23;115345;1199;27176;-56
2021/04/26 08:20:12;;;;;;;2.53;0.40;;;;;;;5.62;50.64;100785.08;115375;1199;23086;-60
2021/04/26 08:22:41;;;;;;;3.47;0.43;;;;;;;5.74;51.03;100786.36;115326;1199;27396;-59
2021/04/26 08:25:12;;;;;;;5.37;0.50;;;;;;;5.87;50.53;100787.27;115576;1196;23107;-57
2021/04/26 08:27:40;;;;;;;;;;;;;;;5.95;50.25;100791.41;115593;1201;28228;-58
2021/04/26 08:30:10;;;;;;;5.10;0.57;;;;;;;6.07;50.40;100793.48;115143;1199;24293;-58
2021/04/26 08:32:39;;;;;;;2.53;0.43;;;;;;;6.20;49.14;100788.00;115344;1199;23089;-57
2021/04/26 08:35:09;;;;;;;3.90;0.60;;;;;;;6.23;49.92;100790.67;115487;1196;23150;-60
2021/04/26 08:37:38;;;;;;;2.87;0.60;;;;;;;6.27;48.52;100787.83;115641;1199;23080;-59
2021/04/26 08:40:09;;;;;;;4.85;1.05;;;;;;;6.26;48.52;100797.34;115375;1199;23089;-58
2021/04/26 08:42:38;;;;;;;4.93;0.50;;;;;;;6.23;49.36;100803.75;115335;1199;23116;-58
2021/04/26 08:45:10;;;;;;;2.03;0.43;;;;;;;6.22;48.95;100788.34;115394;1196;27275;-61
2021/04/26 08:47:41;;;;;;;6.20;0.63;;;;;;;6.23;49.24;100793.45;115362;1196;23125;-60
2021/04/26 08:50:11;;;;;;;2.93;0.70;;;;;;;6.22;49.10;100797.45;115466;1194;23090;-58
2021/04/26 08:52:40;;;;;;;5.68;0.43;;;;;;;6.18;48.01;100798.75;115579;1199;23389;-60
2021/04/26 08:55:12;;;;;;;4.10;0.60;;;;;;;6.13;48.37;100799.27;115496;1199;27908;-59
2021/04/26 08:57:40;;;;;;;2.90;0.60;;;;;;;6.09;48.37;100793.82;115522;1199;23263;-63
2021/04/26 09:00:12;;;;;;;3.07;0.60;;;;;;;6.08;48.01;100799.81;115241;1199;23108;-64
2021/04/26 09:02:54;;;;;;;4.87;0.67;;;;;;;6.15;49.47;100794.84;115309;1199;23084;-62
2021/04/26 09:05:25;;;;;;;4.47;0.70;;;;;;;6.37;48.08;100784.75;115396;1198;24856;-63
2021/04/26 09:07:56;;;;;;;5.60;0.63;;;;;;;6.49;48.42;100786.03;115371;1196;23106;-62
2021/04/26 09:10:41;;;;;;;3.45;0.65;;;;;;;6.62;47.83;100780.53;115138;1198;27246;-62
2021/04/26 09:13:35;;;;;;;4.37;0.57;;;;;;;6.72;47.70;100779.45;115445;1199;23106;-63
2021/04/26 09:16:06;;;;;;;3.63;0.50;;;;;;;6.80;46.24;100776.03;115317;1199;23089;-65
2021/04/26 09:18:56;;;;;;;1.77;0.37;;;;;;;6.76;46.43;100778.13;115100;1199;23073;-64
2021/04/26 09:21:27;;;;;;;4.23;0.50;;;;;;;6.74;46.64;100774.23;115290;1199;23087;-65
2021/04/26 09:24:17;;;;;;;2.85;0.40;;;;;;;6.71;46.43;100777.88;115343;1199;24762;-66
2021/04/26 09:26:48;;;;;;;2.18;0.40;;;;;;;6.67;45.65;100777.20;115384;1199;23487;-65
2021/04/26 09:29:19;;;;;;;3.90;0.60;;;;;;;6.55;46.01;100781.50;115237;1199;23174;-65
2021/04/26 09:32:09;;;;;;;3.85;0.50;;;;;;;6.46;44.69;100778.57;115383;1199;26133;-65
2021/04/26 09:34:41;;;;;;;3.08;0.50;;;;;;;6.39;45.77;100785.09;115301;1199;27309;-64
2021/04/26 09:37:16;;;;;;;5.35;0.60;;;;;;;6.40;45.43;100778.34;115516;1196;23097;-64
2021/04/26 09:40:04;;;;;;;3.27;0.43;;;;;;;6.46;45.03;100771.03;115287;1199;23259;-65
2021/04/26 09:42:47;;;;;;;1.90;0.30;;;;;;;6.57;43.96;100765.20;115064;1199;23089;-64
2021/04/26 09:45:26;;;;;;;4.85;0.40;;;;;;;6.74;44.85;100763.92;115506;1199;23118;-64
2021/04/26 09:48:14;;;;;;;2.47;0.40;;;;;;;6.89;44.43;100753.19;115221;1199;27300;-64
2021/04/26 09:51:01;;;;;;;5.47;0.50;;;;;;;7.04;43.31;100763.41;115267;1199;26206;-65
2021/04/26 09:53:31;;;;;;;3.87;0.50;;;;;;;7.13;44.67;100752.44;115131;1199;23228;-64
2021/04/26 09:56:09;;;;;;;;;;;;;;;7.25;44.32;100750.88;115361;1202;23090;-65
2021/04/26 09:58:40;;;;;;;3.70;0.50;;;;;;;7.33;44.59;100747.44;115308;1199;21601;-65
2021/04/26 10:01:09;;;;;;;2.97;0.40;;;;;;;7.34;43.41;100751.75;115242;1199;23090;-65
2021/04/26 10:03:38;;;;;;;2.60;0.37;;;;;;;7.35;43.71;100750.55;115141;1199;24311;-64
2021/04/26 10:06:07;;;;;;;1.30;0.40;;;;;;;7.37;42.99;100754.89;115237;1199;27342;-64
2021/04/26 10:08:37;;;;;;;2.50;0.30;;;;;;;7.41;43.60;100750.76;115222;1199;23080;-64
2021/04/26 10:11:07;;;;;;;3.73;0.43;;;;;;;7.44;43.04;100743.54;115295;1199;23304;-65
2021/04/26 10:13:35;;;;;;;4.07;0.60;;;;;;;7.48;43.48;100746.98;115526;1199;26428;-65
2021/04/26 10:16:08;;;;;;;3.27;0.40;;;;;;;7.55;42.95;100741.20;115242;1199;23089;-65
2021/04/26 10:18:39;;;;;;;3.85;0.50;;;;;;;7.60;42.79;100729.52;115233;1199;24768;-65
2021/04/26 10:21:31;;;;;;;2.65;0.50;;;;;;;7.70;43.30;100725.60;115195;1199;24896;-66
2021/04/26 10:24:14;;;;;;;5.10;0.57;;;;;;;7.85;43.42;100729.47;115264;1195;23089;-65
2021/04/26 10:26:49;;;;;;;3.97;0.50;;;;;;;7.95;41.01;100728.33;115159;1199;26138;-65
2021/04/26 10:29:23;;;;;;;3.33;0.60;;;;;;;8.00;42.66;100727.77;115131;1199;24893;-65
2021/04/26 10:32:15;;;;;;;5.15;0.60;;;;;;;7.97;42.08;100721.09;115327;1199;23080;-65
2021/04/26 10:35:14;;;;;;;3.50;0.60;;;;;;;8.03;41.70;100718.51;115295;1197;23088;-65
2021/04/26 10:37:50;;;;;;;4.87;0.50;;;;;;;8.01;41.66;100707.84;115207;1199;23317;-65
2021/04/26 10:40:23;;;;;;;3.27;0.50;;;;;;;8.00;41.63;100699.97;115487;1199;23305;-65
2021/04/26 10:42:53;;;;;;;8.90;0.50;;;;;;;8.05;41.83;100702.16;115269;1199;23171;-64
2021/04/26 10:45:31;;;;;;;2.23;0.47;;;;;;;8.08;42.14;100695.70;115370;1196;28185;-64
2021/04/26 10:48:11;;;;;;;2.77;0.50;;;;;;;8.12;42.38;100701.91;115185;1199;23422;-63
2021/04/26 10:50:51;;;;;;;2.95;0.50;;;;;;;8.13;41.94;100703.48;115358;1196;23151;-64
2021/04/26 10:53:20;;;;;;;4.15;0.80;;;;;;;8.19;42.13;100698.89;115449;1199;23272;-65
2021/04/26 10:55:54;;;;;;;4.23;0.50;;;;;;;8.25;41.28;100699.89;115266;1199;26045;-65
2021/04/26 10:58:40;;;;;;;2.40;0.40;;;;;;;8.31;40.85;100692.52;115377;1199;23108;-65
2021/04/26 11:01:38;;;;;;;4.97;0.40;;;;;;;8.34;40.63;100691.59;115240;1196;23170;-63
2021/04/26 11:04:09;;;;;;;4.40;0.60;;;;;;;8.31;40.69;100691.73;115157;1196;23098;-63
2021/04/26 11:06:38;;;;;;;5.77;0.70;;;;;;;8.34;40.78;100696.41;115436;1199;23085;-63
2021/04/26 11:09:35;;;;;;;4.40;0.60;;;;;;;8.33;40.86;100695.63;115151;1195;23093;-63
2021/04/26 11:12:32;;;;;;;3.90;0.40;;;;;;;8.32;40.50;100687.73;115204;1196;23144;-64
2021/04/26 11:15:19;;;;;;;2.15;0.50;;;;;;;8.28;40.54;100687.84;115170;1198;27201;-64
2021/04/26 11:17:50;;;;;;;5.73;0.40;;;;;;;8.28;40.76;100687.06;115393;1199;23108;-64
2021/04/26 11:20:27;;;;;;;3.25;0.70;;;;;;;8.25;40.67;100683.20;115249;1198;23082;-64
2021/04/26 11:22:57;;;;;;;4.77;0.50;;;;;;;8.25;40.47;100687.95;115279;1199;23224;-64
2021/04/26 11:25:37;;;;;;;5.40;0.55;;;;;;;8.21;40.32;100682.53;115485;1199;23091;-64
2021/04/26 11:28:08;;;;;;;3.53;0.50;;;;;;;8.14;40.27;100677.99;115228;1196;23186;-64
2021/04/26 11:30:49;;;;;;;4.43;0.50;;;;;;;8.11;39.60;100681.66;115441;1199;24753;-64
2021/04/26 11:33:24;;;;;;;5.60;0.50;;;;;;;8.10;39.72;100671.00;115178;1200;23107;-64
2021/04/26 11:36:14;;;;;;;3.10;0.50;;;;;;;8.19;39.13;100663.48;115168;1199;23113;-64
2021/04/26 11:38:46;;;;;;;2.40;0.47;;;;;;;8.31;39.25;100653.58;115223;1199;23092;-64
2021/04/26 11:41:18;;;;;;;2.05;0.40;;;;;;;8.32;38.78;100646.77;115249;1199;23167;-64
2021/04/26 11:43:54;;;;;;;4.65;0.40;;;;;;;8.30;37.91;100652.01;115161;1199;27502;-64